Time,TemperatureF,DewpointF,PressureIn,WindDirection,WindDirectionDegrees,WindSpeedMPH,WindSpeedGustMPH,Humidity,HourlyPrecipIn,Conditions,Clouds,dailyrainin,SoftwareType,DateUTC
2013-08-22 00:14:00,67.0,63.0,29.98,South,186,0.0,-999.0,87,-99.99,,,-99.99,,2013-08-22 04:14:00,
2013-08-22 00:23:00,67.0,63.0,29.98,South,186,0.0,-999.0,88,-99.99,,,-99.99,,2013-08-22 04:23:00,
2013-08-22 00:54:00,66.0,62.0,29.98,South,186,0.0,-999.0,88,-99.99,,,-99.99,,2013-08-22 04:54:00,
2013-08-22 01:13:00,66.0,62.0,29.98,South,186,0.0,-999.0,88,-99.99,,,-99.99,,2013-08-22 05:13:00,
2013-08-22 01:22:00,66.0,63.0,29.98,South,186,0.0,-999.0,89,-99.99,,,-99.99,,2013-08-22 05:22:00,
2013-08-22 01:43:00,66.0,63.0,29.98,South,186,0.0,-999.0,89,-99.99,,,-99.99,,2013-08-22 05:43:00,
2013-08-22 01:52:00,66.0,63.0,29.99,South,186,0.0,-999.0,90,-99.99,,,-99.99,,2013-08-22 05:52:00,
2013-08-22 02:12:00,66.0,63.0,29.99,South,186,0.0,-999.0,89,-99.99,,,-99.99,,2013-08-22 06:12:00,
2013-08-22 02:22:00,65.0,62.0,29.99,South,186,0.0,-999.0,89,-99.99,,,-99.99,,2013-08-22 06:22:00,
2013-08-22 02:42:00,65.0,62.0,29.99,South,186,0.0,-999.0,90,-99.99,,,-99.99,,2013-08-22 06:42:00,
2013-08-22 02:52:00,65.0,62.0,29.99,South,186,0.0,-999.0,90,-99.99,,,-99.99,,2013-08-22 06:52:00,
2013-08-22 03:12:00,65.0,62.0,29.99,South,186,0.0,-999.0,91,-99.99,,,-99.99,,2013-08-22 07:12:00,
2013-08-22 03:22:00,64.0,61.0,29.98,South,186,0.0,-999.0,91,-99.99,,,-99.99,,2013-08-22 07:22:00,
2013-08-22 03:42:00,64.0,61.0,29.98,South,186,0.0,-999.0,91,-99.99,,,-99.99,,2013-08-22 07:42:00,
2013-08-22 03:52:00,64.0,61.0,29.98,South,186,0.0,-999.0,91,-99.99,,,-99.99,,2013-08-22 07:52:00,
2013-08-22 04:12:00,64.0,62.0,29.98,South,186,0.0,-999.0,92,-99.99,,,-99.99,,2013-08-22 08:12:00,
2013-08-22 04:22:00,64.0,62.0,29.98,South,186,0.0,-999.0,92,-99.99,,,-99.99,,2013-08-22 08:22:00,
2013-08-22 04:53:00,64.0,61.0,29.97,South,186,0.0,-999.0,91,-99.99,,,-99.99,,2013-08-22 08:53:00,
2013-08-22 05:11:00,64.0,61.0,29.96,South,186,0.0,-999.0,91,-99.99,,,-99.99,,2013-08-22 09:11:00,
2013-08-22 05:22:00,64.0,61.0,29.96,South,186,0.0,-999.0,91,-99.99,,,-99.99,,2013-08-22 09:22:00,
2013-08-22 05:53:00,63.0,60.0,29.96,South,186,0.0,-999.0,91,-99.99,,,-99.99,,2013-08-22 09:53:00,
2013-08-22 06:12:00,63.0,60.0,29.95,South,186,0.0,-999.0,91,-99.99,,,-99.99,,2013-08-22 10:12:00,
2013-08-22 06:23:00,63.0,61.0,29.95,South,186,0.0,-999.0,92,-99.99,,,-99.99,,2013-08-22 10:23:00,
2013-08-22 06:24:00,63.0,61.0,29.95,South,186,0.0,-999.0,93,-99.99,,,-99.99,,2013-08-22 10:24:00,
2013-08-22 06:42:00,63.0,61.0,29.95,South,186,0.0,-999.0,92,-99.99,,,-99.99,,2013-08-22 10:42:00,
2013-08-22 08:52:00,69.0,66.0,29.95,SW,219,0.0,-999.0,89,-99.99,,,-99.99,,2013-08-22 12:52:00,
2013-08-22 09:12:00,71.0,66.0,29.94,SW,221,0.0,-999.0,84,-99.99,,,-99.99,,2013-08-22 13:12:00,
2013-08-22 09:22:00,73.0,67.0,29.94,SW,221,0.0,-999.0,82,-99.99,,,-99.99,,2013-08-22 13:22:00,
2013-08-22 09:52:00,75.0,67.0,29.94,SW,221,0.0,-999.0,77,-99.99,,,-99.99,,2013-08-22 13:52:00,
2013-08-22 10:11:00,76.0,67.0,29.94,SW,220,0.0,-999.0,75,-99.99,,,-99.99,,2013-08-22 14:11:00,
2013-08-22 10:22:00,78.0,68.0,29.93,SW,219,0.0,-999.0,72,-99.99,,,-99.99,,2013-08-22 14:22:00,
2013-08-22 10:52:00,83.0,70.0,29.93,NW,320,0.0,-999.0,64,-99.99,,,-99.99,,2013-08-22 14:52:00,
2013-08-22 11:12:00,83.0,68.0,29.94,West,265,1.0,-999.0,61,-99.99,,,-99.99,,2013-08-22 15:12:00,
2013-08-22 11:22:00,85.0,69.0,29.93,West,278,1.0,-999.0,59,-99.99,,,-99.99,,2013-08-22 15:22:00,
2013-08-22 11:43:00,87.0,70.0,29.93,SSW,196,0.0,-999.0,57,-99.99,,,-99.99,,2013-08-22 15:43:00,
2013-08-22 12:25:00,90.0,69.0,29.91,South,188,1.0,-999.0,51,-99.99,,,-99.99,,2013-08-22 16:25:00,
2013-08-22 13:53:00,91.0,67.0,29.88,SSE,163,2.0,-999.0,46,-99.99,,,-99.99,,2013-08-22 17:53:00,
2013-08-22 14:22:00,90.0,68.0,29.88,South,182,1.0,-999.0,49,-99.99,,,-99.99,,2013-08-22 18:22:00,
2013-08-22 14:43:00,88.0,68.0,29.87,West,265,1.0,-999.0,51,-99.99,,,-99.99,,2013-08-22 18:43:00,
2013-08-22 14:52:00,87.0,68.0,29.86,West,263,1.0,-999.0,54,-99.99,,,-99.99,,2013-08-22 18:52:00,
2013-08-22 15:11:00,87.0,69.0,29.85,South,184,0.0,-999.0,56,-99.99,,,-99.99,,2013-08-22 19:11:00,
2013-08-22 15:22:00,86.0,71.0,29.84,SSW,201,1.0,-999.0,61,-99.99,,,-99.99,,2013-08-22 19:22:00,
2013-08-22 15:53:00,86.0,72.0,29.82,South,169,1.0,-999.0,63,-99.99,,,-99.99,,2013-08-22 19:53:00,
2013-08-22 16:12:00,85.0,71.0,29.82,SSW,206,1.0,-999.0,64,-99.99,,,-99.99,,2013-08-22 20:12:00,
2013-08-22 16:23:00,84.0,72.0,29.82,SSE,150,0.0,-999.0,67,-99.99,,,-99.99,,2013-08-22 20:23:00,
2013-08-22 16:42:00,84.0,72.0,29.82,WSW,242,1.0,-999.0,67,-99.99,,,-99.99,,2013-08-22 20:42:00,
2013-08-22 16:52:00,83.0,71.0,29.82,South,182,1.0,-999.0,68,-99.99,,,-99.99,,2013-08-22 20:52:00,
2013-08-22 17:13:00,83.0,71.0,29.81,South,183,1.0,-999.0,68,-99.99,,,-99.99,,2013-08-22 21:13:00,
2013-08-22 17:22:00,82.0,71.0,29.81,SSW,205,1.0,-999.0,69,-99.99,,,-99.99,,2013-08-22 21:22:00,
2013-08-22 17:44:00,83.0,71.0,29.80,South,190,1.0,-999.0,68,-99.99,,,-99.99,,2013-08-22 21:44:00,
2013-08-22 17:54:00,83.0,71.0,29.80,South,177,1.0,-999.0,68,-99.99,,,-99.99,,2013-08-22 21:54:00,
2013-08-22 18:13:00,83.0,71.0,29.79,SW,228,0.0,-999.0,68,-99.99,,,-99.99,,2013-08-22 22:13:00,
2013-08-22 18:25:00,82.0,70.0,29.79,South,170,1.0,-999.0,68,-99.99,,,-99.99,,2013-08-22 22:25:00,
2013-08-22 18:42:00,81.0,70.0,29.79,SW,225,1.0,-999.0,70,-99.99,,,-99.99,,2013-08-22 22:42:00,
2013-08-22 18:53:00,80.0,70.0,29.79,South,190,0.0,-999.0,72,-99.99,,,-99.99,,2013-08-22 22:53:00,
2013-08-22 19:12:00,80.0,71.0,29.79,SSW,194,0.0,-999.0,73,-99.99,,,-99.99,,2013-08-22 23:12:00,
2013-08-22 19:23:00,79.0,70.0,29.79,South,187,0.0,-999.0,74,-99.99,,,-99.99,,2013-08-22 23:23:00,
2013-08-22 19:52:00,77.0,69.0,29.79,WSW,250,0.0,-999.0,76,-99.99,,,-99.99,,2013-08-22 23:52:00,
2013-08-22 20:12:00,76.0,68.0,29.79,SSW,208,0.0,-999.0,77,-99.99,,,-99.99,,2013-08-23 00:12:00,
2013-08-22 20:23:00,76.0,69.0,29.79,SSW,207,0.0,-999.0,78,-99.99,,,-99.99,,2013-08-23 00:23:00,
2013-08-22 20:42:00,75.0,68.0,29.80,SSW,209,0.0,-999.0,79,-99.99,,,-99.99,,2013-08-23 00:42:00,
2013-08-22 20:52:00,74.0,68.0,29.80,SSW,206,0.0,-999.0,81,-99.99,,,-99.99,,2013-08-23 00:52:00,
2013-08-22 21:11:00,74.0,68.0,29.80,SSW,199,0.0,-999.0,82,-99.99,,,-99.99,,2013-08-23 01:11:00,
2013-08-22 21:22:00,73.0,68.0,29.80,South,191,0.0,-999.0,83,-99.99,,,-99.99,,2013-08-23 01:22:00,
2013-08-22 21:42:00,73.0,68.0,29.80,SSW,193,0.0,-999.0,84,-99.99,,,-99.99,,2013-08-23 01:42:00,
2013-08-22 21:52:00,72.0,67.0,29.80,SSW,197,0.0,-999.0,85,-99.99,,,-99.99,,2013-08-23 01:52:00,
2013-08-22 22:11:00,72.0,68.0,29.80,SSW,198,0.0,-999.0,86,-99.99,,,-99.99,,2013-08-23 02:11:00,
2013-08-22 22:23:00,72.0,68.0,29.80,SSW,192,0.0,-999.0,87,-99.99,,,-99.99,,2013-08-23 02:23:00,
2013-08-22 22:43:00,71.0,67.0,29.79,SSW,209,0.0,-999.0,88,-99.99,,,-99.99,,2013-08-23 02:43:00,
2013-08-22 22:52:00,71.0,68.0,29.79,SSW,205,0.0,-999.0,89,-99.99,,,-99.99,,2013-08-23 02:52:00,
2013-08-22 23:12:00,71.0,68.0,29.79,SSW,205,0.0,-999.0,89,-99.99,,,-99.99,,2013-08-23 03:12:00,
2013-08-22 23:23:00,71.0,68.0,29.79,SSW,205,0.0,-999.0,90,-99.99,,,-99.99,,2013-08-23 03:23:00,
2013-08-22 23:55:00,70.0,67.0,29.78,SSW,205,0.0,-999.0,91,-99.99,,,-99.99,,2013-08-23 03:55:00,